Time;durP1;ratioP1;P1;durP2;ratioP2;P2;SDS_P1;SDS_P2;PMS_P1;PMS_P2;Temp;Humidity;BMP_temperature;BMP_pressure;BME280_temperature;BME280_humidity;BME280_pressure;Samples;Min_cycle;Max_cycle;Signal;HPM_P1;HPM_P2
2022/01/03 00:00:30;;;;;;;14.35;7.15;;;;;;;-0.88;100.00;99218.20;1721212;83;21112;-67
2022/01/03 00:02:59;;;;;;;8.30;4.60;;;;;;;-0.87;100.00;99204.42;1708369;82;21110;-68
2022/01/03 00:05:26;;;;;;;13.58;5.00;;;;;;;-0.83;100.00;99199.63;1673528;84;21046;-70
2022/01/03 00:07:53;;;;;;;6.83;3.67;;;;;;;-0.81;100.00;99164.30;1677341;84;21065;-71
2022/01/03 00:10:21;;;;;;;15.55;3.87;;;;;;;-0.81;100.00;99161.71;1682789;84;21065;-70
2022/01/03 00:12:49;;;;;;;12.70;5.67;;;;;;;-0.79;100.00;99156.09;1704212;84;21566;-71
2022/01/03 00:15:20;;;;;;;12.20;7.08;;;;;;;-0.76;100.00;99150.93;1682934;85;21109;-71
2022/01/03 00:17:48;;;;;;;18.37;8.03;;;;;;;-0.77;100.00;99140.15;1704154;84;21522;-72
2022/01/03 00:20:16;;;;;;;14.60;7.58;;;;;;;-0.75;100.00;99143.58;1691091;84;21080;-69
2022/01/03 00:22:56;;;;;;;11.15;5.37;;;;;;;-0.75;100.00;99145.31;1677451;84;21117;-69
2022/01/03 00:25:25;;;;;;;9.20;4.65;;;;;;;-0.75;100.00;99117.73;1677320;85;21152;-69
2022/01/03 00:28:06;;;;;;;11.93;6.67;;;;;;;-0.76;100.00;99105.69;1676914;85;21112;-70
2022/01/03 00:30:37;;;;;;;10.13;5.05;;;;;;;-0.74;100.00;99077.22;1677105;85;21160;-70
2022/01/03 00:33:04;;;;;;;13.03;7.15;;;;;;;-0.74;100.00;99086.27;1676888;85;22273;-69
2022/01/03 00:35:37;;;;;;;13.72;7.15;;;;;;;-0.75;100.00;99056.97;1676691;85;21131;-68
2022/01/03 00:38:04;;;;;;;14.03;6.87;;;;;;;-0.72;100.00;99081.50;1676993;84;22171;-72
2022/01/03 00:40:30;;;;;;;17.32;8.75;;;;;;;-0.70;100.00;99065.54;1677241;85;21662;-70
2022/01/03 00:42:57;;;;;;;17.48;7.72;;;;;;;-0.68;100.00;99057.34;1677143;85;21886;-71
2022/01/03 00:45:23;;;;;;;15.65;6.62;;;;;;;-0.66;100.00;99053.02;1676783;85;21076;-68
2022/01/03 00:47:49;;;;;;;19.17;8.08;;;;;;;-0.64;100.00;99037.05;1670071;84;21616;-70
2022/01/03 00:50:18;;;;;;;17.07;8.28;;;;;;;-0.60;100.00;99033.14;1642850;85;21104;-69
2022/01/03 00:52:45;;;;;;;13.70;7.05;;;;;;;-0.58;100.00;99032.69;1670550;85;21172;-69
2022/01/03 00:55:13;;;;;;;19.02;8.48;;;;;;;-0.56;100.00;99001.20;1670502;85;21115;-69
2022/01/03 00:58:10;;;;;;;20.50;11.03;;;;;;;-0.57;100.00;99013.29;1669621;85;21128;-70
2022/01/03 01:00:40;;;;;;;22.17;10.65;;;;;;;-0.55;100.00;99008.08;1675911;84;21553;-69
2022/01/03 01:03:15;;;;;;;20.43;9.53;;;;;;;-0.53;100.00;98971.42;1698051;84;21105;-69
2022/01/03 01:05:44;;;;;;;18.15;9.50;;;;;;;-0.52;100.00;98974.45;1698614;84;21152;-68
2022/01/03 01:08:11;;;;;;;21.87;9.95;;;;;;;-0.50;100.00;98961.06;1697876;84;21838;-69
2022/01/03 01:10:41;;;;;;;20.97;11.15;;;;;;;-0.48;100.00;98945.09;1698467;84;22202;-70
2022/01/03 01:13:09;;;;;;;22.35;11.90;;;;;;;-0.45;100.00;98937.30;1697823;84;21814;-70
2022/01/03 01:15:37;;;;;;;23.45;11.48;;;;;;;-0.41;100.00;98940.27;1674306;84;21081;-69
2022/01/03 01:18:04;;;;;;;29.90;12.90;;;;;;;-0.37;100.00;98943.22;1669535;85;21593;-68
2022/01/03 01:20:35;;;;;;;21.35;11.25;;;;;;;-0.34;100.00;98934.15;1669580;85;21160;-67
2022/01/03 01:23:04;;;;;;;18.00;8.68;;;;;;;-0.33;100.00;98933.26;1669686;85;21167;-66
2022/01/03 01:28:14;;;;;;;19.12;9.55;;;;;;;-0.28;100.00;98906.88;1661230;82;21065;-68
2022/01/03 01:30:43;;;;;;;18.82;9.40;;;;;;;-0.24;100.00;98905.98;1725758;83;21587;-69
2022/01/03 01:33:14;;;;;;;20.72;10.30;;;;;;;-0.23;100.00;98893.47;1724246;83;21105;-69
2022/01/03 01:35:46;;;;;;;17.57;9.53;;;;;;;-0.22;100.00;98880.94;1723438;83;21119;-69
2022/01/03 01:38:17;;;;;;;17.60;9.03;;;;;;;-0.19;100.00;98889.55;1723750;83;21132;-70
2022/01/03 01:40:49;;;;;;;17.00;8.58;;;;;;;-0.19;100.00;98891.69;1723853;83;21068;-70
2022/01/03 01:43:25;;;;;;;16.57;8.45;;;;;;;-0.16;100.00;98888.20;1726916;83;21116;-69
2022/01/03 01:45:52;;;;;;;13.95;7.62;;;;;;;-0.13;100.00;98873.95;1711271;83;21173;-70
2022/01/03 01:48:21;;;;;;;19.00;9.55;;;;;;;-0.11;100.00;98867.02;1726997;83;21037;-70
2022/01/03 01:50:51;;;;;;;19.23;10.23;;;;;;;-0.09;100.00;98852.30;1724813;83;21069;-68
2022/01/03 01:53:24;;;;;;;22.55;10.78;;;;;;;-0.06;100.00;98849.69;1718980;83;21101;-69
2022/01/03 01:55:55;;;;;;;25.48;12.68;;;;;;;-0.02;100.00;98850.06;1711644;83;21098;-70
2022/01/03 01:58:30;;;;;;;;;;;;;;;0.02;100.00;98853.00;1714263;83;22231;-69
2022/01/03 02:01:07;;;;;;;25.90;13.40;;;;;;;0.05;100.00;98842.63;1711277;82;20574;-70
2022/01/03 02:03:53;;;;;;;22.02;13.13;;;;;;;0.08;100.00;98847.73;1695898;82;21058;-69
2022/01/03 02:06:47;;;;;;;27.10;12.93;;;;;;;0.12;100.00;98845.97;1667926;83;21649;-70
2022/01/03 02:09:20;;;;;;;29.52;13.95;;;;;;;0.19;100.00;98829.02;1723558;83;21061;-70
2022/01/03 02:11:55;;;;;;;26.55;13.20;;;;;;;0.27;100.00;98826.73;1724020;83;21140;-70
2022/01/03 02:14:25;;;;;;;27.65;14.10;;;;;;;0.32;100.00;98813.27;1723082;83;21533;-70
2022/01/03 02:16:53;;;;;;;26.10;12.50;;;;;;;0.37;100.00;98801.12;1723527;83;21107;-69
2022/01/03 02:19:21;;;;;;;29.52;14.03;;;;;;;0.43;100.00;98777.69;1724716;83;21061;-69
2022/01/03 02:21:48;;;;;;;28.05;13.88;;;;;;;0.49;100.00;98770.27;1723411;83;21152;-72
2022/01/03 02:24:17;;;;;;;23.00;11.90;;;;;;;0.53;100.00;98780.55;1721927;83;21891;-69
2022/01/03 02:26:44;;;;;;;25.40;12.03;;;;;;;0.58;100.00;98785.19;1721663;81;21110;-70
2022/01/03 02:29:11;;;;;;;20.35;11.28;;;;;;;0.63;100.00;98778.18;1716843;83;21085;-70
2022/01/03 02:31:38;;;;;;;18.32;9.55;;;;;;;0.67;100.00;98773.81;1716675;83;21642;-70
2022/01/03 02:34:05;;;;;;;20.95;10.70;;;;;;;0.71;100.00;98767.66;1717202;83;21028;-70
2022/01/03 02:36:33;;;;;;;21.25;11.03;;;;;;;0.76;100.00;98776.64;1717328;82;21150;-72
2022/01/03 02:39:00;;;;;;;22.42;10.63;;;;;;;0.80;100.00;98762.75;1692324;83;21067;-70
2022/01/03 02:41:27;;;;;;;18.07;10.30;;;;;;;0.83;100.00;98761.42;1717290;83;21110;-71
2022/01/03 02:43:56;;;;;;;17.10;9.43;;;;;;;0.85;100.00;98754.44;1717103;83;21097;-68
2022/01/03 02:46:23;;;;;;;18.27;9.00;;;;;;;0.88;100.00;98752.25;1717006;83;21110;-68
2022/01/03 02:48:50;;;;;;;19.87;10.35;;;;;;;0.91;100.00;98740.07;1717011;82;21143;-69
2022/01/03 02:51:17;;;;;;;20.00;11.08;;;;;;;0.94;100.00;98736.56;1716950;83;21118;-68
2022/01/03 02:53:43;;;;;;;18.50;10.60;;;;;;;0.99;100.00;98717.45;1716805;83;21054;-69
2022/01/03 02:56:10;;;;;;;20.52;10.72;;;;;;;1.00;100.00;98701.00;1717083;83;21070;-70
2022/01/03 02:58:37;;;;;;;19.57;10.88;;;;;;;1.05;100.00;98695.27;1717132;82;21166;-69
2022/01/03 03:01:03;;;;;;;20.23;11.35;;;;;;;1.08;100.00;98685.72;1717109;82;21474;-68
2022/01/03 03:03:32;;;;;;;19.92;11.53;;;;;;;1.09;100.00;98674.48;1716571;82;21133;-68
2022/01/03 03:05:59;;;;;;;21.62;11.22;;;;;;;1.13;100.00;98653.63;1717370;83;21629;-68
2022/01/03 03:08:26;;;;;;;21.50;12.13;;;;;;;1.15;100.00;98652.28;1717351;83;21062;-69
2022/01/03 03:10:53;;;;;;;21.80;10.95;;;;;;;1.17;100.00;98668.20;1717202;83;21689;-68
2022/01/03 03:13:20;;;;;;;20.08;10.82;;;;;;;1.19;100.00;98657.36;1717173;83;21079;-69
2022/01/03 03:15:48;;;;;;;19.67;10.95;;;;;;;1.23;100.00;98650.38;1716948;83;21142;-71
2022/01/03 03:18:15;;;;;;;19.25;10.72;;;;;;;1.24;100.00;98647.77;1716996;83;21149;-69
2022/01/03 03:20:44;;;;;;;18.65;10.28;;;;;;;1.29;100.00;98651.97;1716728;82;21050;-70
2022/01/03 03:23:11;;;;;;;20.85;10.98;;;;;;;1.33;100.00;98692.52;1717181;83;21090;-69
2022/01/03 03:25:39;;;;;;;23.73;11.00;;;;;;;1.35;100.00;98676.02;1717101;83;21146;-69
2022/01/03 03:28:11;;;;;;;22.48;10.95;;;;;;;1.39;100.00;98672.48;1683247;84;21072;-70
2022/01/03 03:30:43;;;;;;;19.40;9.55;;;;;;;1.44;100.00;98664.59;1704422;84;21028;-69
2022/01/03 03:33:22;;;;;;;20.50;10.95;;;;;;;1.49;100.00;98660.59;1704746;84;21552;-69
2022/01/03 03:35:51;;;;;;;22.80;11.55;;;;;;;1.54;100.00;98681.66;1704129;84;21082;-70
2022/01/03 03:38:19;;;;;;;24.47;11.45;;;;;;;1.58;100.00;98690.20;1711848;83;21773;-69
2022/01/03 03:40:48;;;;;;;21.40;11.10;;;;;;;1.62;100.00;98689.25;1716590;83;21098;-69
2022/01/03 03:43:15;;;;;;;19.23;10.63;;;;;;;1.67;100.00;98684.80;1717720;83;21094;-70
2022/01/03 03:45:45;;;;;;;15.55;10.48;;;;;;;1.70;100.00;98676.08;1719357;83;21055;-64
2022/01/03 03:48:13;;;;;;;18.17;10.08;;;;;;;1.73;100.00;98665.19;1717582;83;21558;-68
2022/01/03 03:50:40;;;;;;;21.17;10.58;;;;;;;1.77;100.00;98668.13;1717186;83;21099;-65
2022/01/03 03:53:09;;;;;;;18.90;9.90;;;;;;;1.80;100.00;98654.22;1716707;83;21137;-64
2022/01/03 03:55:36;;;;;;;18.42;10.75;;;;;;;1.87;100.00;98649.27;1716663;83;21063;-66
2022/01/03 03:58:03;;;;;;;20.10;10.20;;;;;;;1.88;100.00;98639.28;1716333;83;21064;-66
2022/01/03 04:00:30;;;;;;;18.80;10.38;;;;;;;1.94;100.00;98635.70;1716458;82;21705;-66
2022/01/03 04:02:58;;;;;;;19.32;10.23;;;;;;;1.97;100.00;98626.52;1716559;82;21135;-65
2022/01/03 04:05:26;;;;;;;17.70;9.38;;;;;;;2.00;100.00;98625.12;1716606;83;21083;-65
2022/01/03 04:07:54;;;;;;;17.60;9.48;;;;;;;2.03;100.00;98625.06;1716962;83;21137;-67
2022/01/03 04:10:21;;;;;;;17.52;9.45;;;;;;;2.03;100.00;98617.28;1716940;83;21562;-66
2022/01/03 04:12:49;;;;;;;21.62;11.10;;;;;;;2.04;100.00;98613.77;1716950;83;21067;-68
2022/01/03 04:15:17;;;;;;;24.47;10.98;;;;;;;2.04;100.00;98605.98;1717300;83;22057;-68
2022/01/03 04:17:43;;;;;;;21.82;11.25;;;;;;;2.08;100.00;98597.22;1713988;83;21109;-67
2022/01/03 04:20:15;;;;;;;21.80;11.30;;;;;;;2.09;100.00;98589.83;1691923;83;21081;-67
2022/01/03 04:22:44;;;;;;;21.42;11.18;;;;;;;2.10;100.00;98579.86;1716664;83;21067;-68
2022/01/03 04:25:14;;;;;;;20.95;10.80;;;;;;;2.13;100.00;98578.47;1716950;82;21078;-67
2022/01/03 04:27:45;;;;;;;20.10;10.98;;;;;;;2.16;100.00;98564.09;1708443;83;21573;-68
2022/01/03 04:30:13;;;;;;;17.25;9.98;;;;;;;2.19;100.00;98574.87;1704585;84;21067;-68
2022/01/03 04:32:42;;;;;;;17.87;9.70;;;;;;;2.22;100.00;98548.80;1704345;82;21768;-68
2022/01/03 04:35:09;;;;;;;17.60;9.68;;;;;;;2.22;100.00;98548.80;1704545;82;21391;-68
2022/01/03 04:37:37;;;;;;;18.62;9.50;;;;;;;2.19;100.00;98540.64;1704219;84;21064;-68
2022/01/03 04:40:06;;;;;;;19.23;10.23;;;;;;;2.28;100.00;98526.55;1704411;83;21156;-68
2022/01/03 04:42:33;;;;;;;20.85;10.68;;;;;;;2.33;100.00;98522.06;1713785;83;21135;-73
2022/01/03 04:45:01;;;;;;;17.35;10.60;;;;;;;2.40;100.00;98516.24;1713583;83;21069;-69
2022/01/03 04:47:28;;;;;;;18.12;9.55;;;;;;;2.46;100.00;98517.34;1716709;83;21132;-69
2022/01/03 04:49:55;;;;;;;16.35;9.30;;;;;;;2.53;100.00;98516.25;1714557;82;21529;-68
2022/01/03 04:52:21;;;;;;;18.82;9.58;;;;;;;2.59;100.00;98503.08;1667121;84;21150;-67
2022/01/03 04:54:47;;;;;;;14.63;8.58;;;;;;;2.66;100.00;98502.45;1665433;85;21125;-67
2022/01/03 04:57:14;;;;;;;17.25;9.70;;;;;;;2.72;100.00;98504.41;1668629;84;21581;-67
2022/01/03 04:59:42;;;;;;;15.23;8.63;;;;;;;2.78;100.00;98502.52;1674673;84;21011;-68
2022/01/03 05:02:08;;;;;;;18.17;10.05;;;;;;;2.85;100.00;98498.81;1701043;83;21143;-69
2022/01/03 05:04:35;;;;;;;16.75;9.20;;;;;;;2.94;100.00;98488.12;1666717;85;21969;-69
2022/01/03 05:07:02;;;;;;;17.57;9.25;;;;;;;3.04;100.00;98475.23;1684957;85;21053;-68
2022/01/03 05:09:29;;;;;;;13.93;8.98;;;;;;;3.04;100.00;98475.23;1684918;85;21616;-70
2022/01/03 05:11:56;;;;;;;14.05;9.00;;;;;;;3.08;100.00;98478.56;1701339;83;21651;-70
2022/01/03 05:14:23;;;;;;;14.43;8.80;;;;;;;3.10;100.00;98481.52;1713524;83;21124;-69
2022/01/03 05:16:52;;;;;;;14.90;8.38;;;;;;;3.14;100.00;98471.41;1712767;83;21166;-69
2022/01/03 05:19:21;;;;;;;21.00;9.43;;;;;;;3.18;100.00;98477.84;1713467;83;21098;-70
2022/01/03 05:21:50;;;;;;;14.95;8.38;;;;;;;3.22;100.00;98470.30;1713192;83;21660;-70
2022/01/03 05:24:17;;;;;;;16.80;9.60;;;;;;;3.24;100.00;98480.20;1716609;82;21008;-69
2022/01/03 05:26:45;;;;;;;14.10;8.90;;;;;;;3.27;100.00;98478.83;1716234;83;21067;-69
2022/01/03 05:29:12;;;;;;;17.02;9.70;;;;;;;3.28;100.00;98480.52;1713735;83;21197;-69
2022/01/03 05:31:39;;;;;;;17.27;9.13;;;;;;;3.29;100.00;98471.79;1713243;83;21173;-70
2022/01/03 05:34:06;;;;;;;22.27;9.50;;;;;;;3.35;100.00;98475.50;1698124;83;21553;-69
2022/01/03 05:36:33;;;;;;;17.32;9.20;;;;;;;3.41;100.00;98479.20;1713218;83;21106;-70
2022/01/03 05:38:59;;;;;;;15.08;9.10;;;;;;;3.45;100.00;98490.34;1713396;83;21133;-70
2022/01/03 05:41:26;;;;;;;15.90;8.95;;;;;;;3.47;100.00;98485.94;1713159;83;21250;-69
2022/01/03 05:43:53;;;;;;;15.10;9.03;;;;;;;3.50;100.00;98486.69;1713531;82;21032;-69
2022/01/03 05:46:20;;;;;;;16.20;9.25;;;;;;;3.45;100.00;98473.00;1692864;83;21637;-70
2022/01/03 05:48:48;;;;;;;16.48;9.70;;;;;;;3.52;100.00;98476.20;1692649;84;21055;-71
2022/01/03 05:51:15;;;;;;;16.45;9.40;;;;;;;3.53;100.00;98481.37;1691810;84;21042;-70
2022/01/03 05:53:42;;;;;;;17.05;9.48;;;;;;;3.56;100.00;98473.44;1691036;84;21105;-69
2022/01/03 05:56:10;;;;;;;19.65;8.90;;;;;;;3.58;100.00;98472.94;1693165;84;21087;-70
2022/01/03 05:58:38;;;;;;;14.70;8.40;;;;;;;3.60;100.00;98469.45;1680751;83;21186;-69
2022/01/03 06:01:04;;;;;;;19.77;9.38;;;;;;;3.62;100.00;98467.19;1673322;83;21043;-71
2022/01/03 06:03:38;;;;;;;17.02;8.90;;;;;;;3.64;100.00;98469.28;1669044;85;21073;-71
2022/01/03 06:08:32;;;;;;;17.15;8.53;;;;;;;3.68;100.00;98454.39;1688742;83;21104;-70
2022/01/03 06:10:59;;;;;;;15.45;8.73;;;;;;;3.70;100.00;98459.09;1680608;83;21582;-71
2022/01/03 06:13:27;;;;;;;16.77;9.08;;;;;;;3.73;100.00;98462.91;1671229;84;21128;-71
2022/01/03 06:15:55;;;;;;;17.57;8.78;;;;;;;3.75;100.00;98455.86;1623027;86;21078;-68
2022/01/03 06:18:22;;;;;;;16.50;9.03;;;;;;;3.75;100.00;98459.77;1694422;84;21615;-70
2022/01/03 06:20:51;;;;;;;16.62;9.30;;;;;;;3.76;100.00;98459.73;1669593;86;21047;-70
2022/01/03 06:23:20;;;;;;;16.45;8.60;;;;;;;3.78;100.00;98470.09;1717502;82;21149;-69
2022/01/03 06:25:50;;;;;;;17.55;9.20;;;;;;;3.77;100.00;98469.68;1694677;83;21114;-71
2022/01/03 06:28:20;;;;;;;15.98;9.38;;;;;;;3.76;100.00;98466.70;1691633;84;22216;-70
2022/01/03 06:30:47;;;;;;;16.85;9.43;;;;;;;3.79;100.00;98466.11;1670155;84;21237;-70
2022/01/03 06:33:16;;;;;;;16.15;8.80;;;;;;;3.84;100.00;98476.36;1692101;84;21020;-70
2022/01/03 06:35:42;;;;;;;18.70;9.35;;;;;;;3.84;100.00;98465.95;1688621;83;21054;-70
2022/01/03 06:38:09;;;;;;;15.90;9.25;;;;;;;3.87;100.00;98461.95;1662916;86;21625;-70
2022/01/03 06:40:36;;;;;;;17.30;9.68;;;;;;;3.90;100.00;98455.31;1667125;83;21604;-69
2022/01/03 06:43:03;;;;;;;16.25;8.93;;;;;;;3.90;100.00;98456.62;1679629;84;21536;-69
2022/01/03 06:45:30;;;;;;;18.62;9.78;;;;;;;3.95;100.00;98449.48;1681004;84;21341;-70
2022/01/03 06:47:57;;;;;;;20.35;10.13;;;;;;;3.99;100.00;98452.38;1686116;84;21077;-70
2022/01/03 06:50:28;;;;;;;17.37;10.48;;;;;;;4.05;100.00;98451.74;1698089;84;21719;-70
2022/01/03 06:53:03;;;;;;;22.65;11.57;;;;;;;4.09;100.00;98444.22;1693576;82;21057;-73
2022/01/03 06:55:36;;;;;;;21.95;10.95;;;;;;;4.13;100.00;98451.02;1692942;84;21786;-70
2022/01/03 06:58:03;;;;;;;18.07;9.78;;;;;;;4.19;100.00;98448.19;1699484;82;21078;-70
2022/01/03 07:00:29;;;;;;;18.48;10.58;;;;;;;4.20;100.00;98458.53;1695555;83;21098;-69
2022/01/03 07:02:56;;;;;;;20.95;10.43;;;;;;;4.25;100.00;98451.84;1684917;84;21082;-68
2022/01/03 07:05:23;;;;;;;18.60;10.43;;;;;;;4.27;100.00;98449.19;1694101;84;21105;-68
2022/01/03 07:07:51;;;;;;;23.45;11.38;;;;;;;4.30;100.00;98453.84;1688501;82;21164;-68
2022/01/03 07:10:19;;;;;;;18.20;10.10;;;;;;;4.32;100.00;98449.39;1701664;84;21069;-68
2022/01/03 07:12:51;;;;;;;17.67;10.82;;;;;;;4.32;100.00;98446.78;1699622;84;21574;-69
2022/01/03 07:20:51;;;;;;;17.95;9.80;;;;;;;4.41;100.00;98442.98;1691660;84;22340;-66
2022/01/03 07:23:18;;;;;;;21.35;9.80;;;;;;;4.45;100.00;98442.42;1701767;84;21015;-67
2022/01/03 07:25:47;;;;;;;16.02;9.65;;;;;;;4.47;100.00;98431.02;1701289;84;21085;-66
2022/01/03 07:28:14;;;;;;;18.67;10.13;;;;;;;4.52;100.00;98421.72;1690890;83;21112;-66
2022/01/03 07:30:41;;;;;;;20.48;10.20;;;;;;;4.56;100.00;98414.17;1663938;84;21081;-68
2022/01/03 07:33:08;;;;;;;15.45;9.05;;;;;;;4.57;100.00;98401.52;1670557;84;21141;-67
2022/01/03 07:35:35;;;;;;;16.67;8.85;;;;;;;4.60;100.00;98393.13;1703738;82;21076;-66
2022/01/03 07:38:04;;;;;;;16.32;9.48;;;;;;;4.57;100.00;98383.27;1707043;82;21114;-69
2022/01/03 07:40:31;;;;;;;18.02;11.38;;;;;;;4.64;100.00;98393.84;1705642;83;21694;-67
2022/01/03 07:42:59;;;;;;;19.80;10.20;;;;;;;4.67;100.00;98391.13;1711947;83;21060;-67
2022/01/03 07:45:27;;;;;;;20.10;10.25;;;;;;;4.72;100.00;98396.16;1699666;83;21555;-67
2022/01/03 07:47:53;;;;;;;18.15;9.68;;;;;;;4.76;100.00;98398.58;1687599;83;21065;-69
2022/01/03 07:50:20;;;;;;;20.20;11.10;;;;;;;4.78;100.00;98395.42;1702880;83;21053;-69
2022/01/03 07:52:47;;;;;;;20.43;9.50;;;;;;;4.82;100.00;98391.78;1715286;83;21581;-68
2022/01/03 07:55:15;;;;;;;18.20;10.58;;;;;;;4.84;100.00;98378.22;1714925;83;21096;-66
2022/01/03 07:57:42;;;;;;;22.67;10.65;;;;;;;4.89;100.00;98378.49;1715144;83;21117;-67
2022/01/03 08:00:13;;;;;;;19.80;9.70;;;;;;;4.93;100.00;98368.33;1715110;83;21023;-67
2022/01/03 08:02:41;;;;;;;22.62;10.40;;;;;;;4.98;100.00;98371.59;1715481;83;21618;-68
2022/01/03 08:05:10;;;;;;;21.27;10.30;;;;;;;4.84;100.00;98343.02;1714617;83;21070;-67
2022/01/03 08:07:36;;;;;;;20.02;10.45;;;;;;;5.03;100.00;98356.11;1717190;83;21118;-67
2022/01/03 08:10:06;;;;;;;20.15;10.18;;;;;;;5.06;100.00;98359.05;1717098;83;21554;-66
2022/01/03 08:12:35;;;;;;;15.90;9.30;;;;;;;5.08;100.00;98355.08;1717691;83;21575;-67
2022/01/03 08:15:04;;;;;;;18.05;9.35;;;;;;;5.11;100.00;98353.20;1718111;83;21058;-67
2022/01/03 08:17:31;;;;;;;20.40;9.50;;;;;;;5.14;100.00;98350.91;1717868;83;21133;-68
2022/01/03 08:19:58;;;;;;;17.02;9.38;;;;;;;5.18;100.00;98352.02;1716312;83;21061;-68
2022/01/03 08:22:25;;;;;;;19.90;9.73;;;;;;;5.25;100.00;98346.07;1715194;83;21160;-67
2022/01/03 08:24:52;;;;;;;19.45;8.78;;;;;;;5.36;100.00;98354.71;1714523;83;21152;-66
2022/01/03 08:27:19;;;;;;;18.98;9.43;;;;;;;5.43;100.00;98351.78;1716427;83;21538;-67
2022/01/03 08:29:47;;;;;;;18.45;9.23;;;;;;;5.54;100.00;98349.14;1714727;83;21098;-67
2022/01/03 08:32:14;;;;;;;18.77;9.98;;;;;;;5.62;100.00;98349.19;1713312;83;21061;-67
2022/01/03 08:34:40;;;;;;;19.17;10.15;;;;;;;5.70;100.00;98346.68;1713545;83;21193;-68
2022/01/03 08:37:06;;;;;;;19.23;9.18;;;;;;;5.76;100.00;98350.33;1713693;83;21141;-68
2022/01/03 08:39:33;;;;;;;21.62;10.45;;;;;;;5.81;100.00;98340.51;1713492;82;21071;-68
2022/01/03 08:42:00;;;;;;;15.10;9.03;;;;;;;5.83;100.00;98351.74;1713508;83;21170;-69
2022/01/03 08:44:26;;;;;;;20.80;11.40;;;;;;;5.81;100.00;98350.95;1713944;83;22288;-68
2022/01/03 08:46:53;;;;;;;19.95;9.78;;;;;;;5.80;100.00;98338.83;1706737;83;21810;-67
2022/01/03 08:49:19;;;;;;;20.12;10.58;;;;;;;5.79;100.00;98337.12;1684860;85;20998;-68
2022/01/03 08:51:47;;;;;;;18.57;10.35;;;;;;;5.82;100.00;98335.66;1684808;85;21080;-68
2022/01/03 08:54:13;;;;;;;17.55;10.35;;;;;;;5.83;100.00;98332.15;1710942;83;21129;-68
2022/01/03 08:56:39;;;;;;;18.15;9.85;;;;;;;5.86;100.00;98326.77;1713556;83;21336;-67
2022/01/03 08:59:06;;;;;;;18.25;9.73;;;;;;;5.89;100.00;98310.50;1713603;83;22059;-68
2022/01/03 09:01:33;;;;;;;21.17;9.20;;;;;;;5.95;100.00;98312.00;1713668;83;21087;-67
2022/01/03 09:04:00;;;;;;;17.45;8.55;;;;;;;6.02;100.00;98310.79;1713519;83;21095;-68
2022/01/03 09:06:30;;;;;;;16.05;8.43;;;;;;;6.09;100.00;98310.04;1713375;83;21107;-67
2022/01/03 09:08:56;;;;;;;18.90;9.08;;;;;;;6.15;100.00;98310.22;1713440;83;21070;-67
2022/01/03 09:11:23;;;;;;;15.00;8.95;;;;;;;6.18;100.00;98303.53;1713270;83;21203;-68
2022/01/03 09:13:50;;;;;;;15.80;8.60;;;;;;;6.20;100.00;98297.77;1709259;83;21612;-67
2022/01/03 09:16:16;;;;;;;17.30;9.03;;;;;;;6.22;100.00;98293.31;1702052;84;21574;-68
2022/01/03 09:18:43;;;;;;;17.65;9.03;;;;;;;6.23;100.00;98295.84;1702102;84;21026;-68
2022/01/03 09:21:10;;;;;;;17.27;9.60;;;;;;;6.22;100.00;98279.78;1703174;82;21113;-68
2022/01/03 09:23:41;;;;;;;20.27;9.85;;;;;;;6.25;100.00;98290.55;1713847;83;21184;-69
2022/01/03 09:28:51;;;;;;;25.30;12.05;;;;;;;6.29;100.00;98271.18;1713453;83;21063;-69
2022/01/03 09:31:24;;;;;;;19.50;10.70;;;;;;;6.32;100.00;98255.33;1713736;83;21614;-68
2022/01/03 09:33:53;;;;;;;26.07;10.65;;;;;;;6.34;100.00;98261.34;1709186;83;21049;-69
2022/01/03 09:36:19;;;;;;;28.30;13.38;;;;;;;6.37;100.00;98250.72;1706214;83;21808;-69
2022/01/03 09:38:46;;;;;;;28.23;13.45;;;;;;;6.42;100.00;98249.17;1711065;83;21174;-69
2022/01/03 09:41:14;;;;;;;25.20;11.33;;;;;;;6.45;100.00;98242.51;1709532;83;21112;-70
2022/01/03 09:43:52;;;;;;;23.00;11.55;;;;;;;6.43;100.00;98243.88;1711211;83;21093;-69
2022/01/03 09:46:22;;;;;;;23.60;12.50;;;;;;;6.47;100.00;98243.28;1710168;83;21956;-69
2022/01/03 09:48:54;;;;;;;20.68;11.00;;;;;;;6.54;100.00;98233.36;1712610;82;21145;-69
2022/01/03 09:51:23;;;;;;;17.70;9.98;;;;;;;6.78;100.00;98229.46;1706784;83;22136;-69
2022/01/03 09:53:51;;;;;;;28.05;12.70;;;;;;;7.05;100.00;98221.10;1693258;84;21095;-69
2022/01/03 09:56:18;;;;;;;45.30;19.92;;;;;;;7.39;100.00;98224.53;1693405;83;21052;-69
2022/01/03 09:58:45;;;;;;;28.62;12.70;;;;;;;7.98;100.00;98212.48;1692720;83;21062;-70
2022/01/03 10:01:13;;;;;;;38.63;17.62;;;;;;;8.94;100.00;98213.84;1685478;84;22002;-70
2022/01/03 10:03:41;;;;;;;17.65;8.55;;;;;;;9.63;100.00;98207.39;1692049;84;21063;-69
2022/01/03 10:06:09;;;;;;;14.03;8.00;;;;;;;9.82;99.55;98201.34;1691883;84;21058;-69
2022/01/03 10:08:35;;;;;;;13.30;7.90;;;;;;;9.73;98.46;98204.56;1692042;84;21094;-69
2022/01/03 10:11:02;;;;;;;12.37;7.40;;;;;;;9.68;97.94;98193.96;1688749;84;21266;-70
2022/01/03 10:13:28;;;;;;;17.02;7.85;;;;;;;9.54;98.43;98196.16;1677209;85;21554;-69
2022/01/03 10:15:56;;;;;;;15.75;7.85;;;;;;;9.41;98.66;98183.81;1679075;83;21609;-69
2022/01/03 10:18:23;;;;;;;13.28;7.37;;;;;;;9.42;98.61;98180.22;1680865;84;21128;-68
2022/01/03 10:20:50;;;;;;;13.55;7.37;;;;;;;9.31;99.47;98184.00;1671976;84;21072;-71
2022/01/03 10:23:17;;;;;;;17.77;8.40;;;;;;;9.21;99.53;98186.36;1684083;84;21148;-69
2022/01/03 10:25:47;;;;;;;13.83;8.08;;;;;;;9.02;100.00;98187.14;1671544;84;21140;-69
2022/01/03 10:28:24;;;;;;;19.73;9.15;;;;;;;8.79;100.00;98172.80;1686015;83;21096;-70
2022/01/03 10:30:51;;;;;;;12.30;7.28;;;;;;;8.60;100.00;98180.48;1689479;82;21065;-69
2022/01/03 10:33:21;;;;;;;12.63;6.85;;;;;;;8.44;100.00;98180.98;1696317;82;21104;-69
2022/01/03 10:35:51;;;;;;;15.48;8.28;;;;;;;8.27;100.00;98169.32;1685786;83;21035;-69
2022/01/03 10:38:37;;;;;;;12.65;7.10;;;;;;;8.14;100.00;98166.56;1690702;83;21553;-69
2022/01/03 10:41:18;;;;;;;16.07;7.58;;;;;;;8.03;100.00;98167.20;1662369;84;21100;-68
2022/01/03 10:43:54;;;;;;;;;;;;;;;7.96;100.00;98169.81;1665789;84;21116;-69
2022/01/03 10:46:33;;;;;;;13.85;7.60;;;;;;;7.83;100.00;98161.80;1661499;82;20193;-69
2022/01/03 10:49:10;;;;;;;14.55;7.25;;;;;;;7.71;100.00;98156.79;1661734;86;21088;-68
2022/01/03 10:51:37;;;;;;;19.75;9.65;;;;;;;7.66;100.00;98160.14;1669691;84;21125;-69
2022/01/03 10:54:08;;;;;;;13.08;7.10;;;;;;;7.63;100.00;98156.84;1711897;83;21648;-69
2022/01/03 10:56:50;;;;;;;13.15;7.45;;;;;;;7.57;100.00;98152.80;1663255;84;21001;-70
2022/01/03 10:59:25;;;;;;;12.40;6.50;;;;;;;7.53;100.00;98150.80;1665315;84;21313;-67
2022/01/03 11:02:01;;;;;;;19.42;9.65;;;;;;;7.51;100.00;98154.45;1678092;84;21101;-70
2022/01/03 11:13:20;;;;;;;18.27;9.45;;;;;;;7.48;100.00;98142.84;1662388;84;21100;-68
2022/01/03 11:16:01;;;;;;;89.25;37.95;;;;;;;7.48;100.00;98132.36;1693013;84;21084;-71
2022/01/03 11:18:38;;;;;;;67.90;29.02;;;;;;;7.43;100.00;98138.30;1694081;84;21154;-69
2022/01/03 11:21:21;;;;;;;72.62;33.88;;;;;;;7.42;100.00;98137.94;1637678;87;21080;-69
2022/01/03 11:24:13;;;;;;;41.50;17.10;;;;;;;7.38;100.00;98135.10;1668942;82;21617;-70
2022/01/03 11:26:47;;;;;;;25.75;11.45;;;;;;;7.37;100.00;98128.19;1676715;84;21452;-70
2022/01/03 11:29:15;;;;;;;17.50;8.75;;;;;;;7.37;100.00;98133.43;1695302;82;21099;-70
2022/01/03 11:31:43;;;;;;;23.70;10.68;;;;;;;7.38;100.00;98118.92;1714107;82;21084;-70
2022/01/03 11:34:12;;;;;;;55.60;20.95;;;;;;;7.39;100.00;98122.41;1686902;82;21061;-69
2022/01/03 11:36:39;;;;;;;43.00;17.12;;;;;;;7.39;100.00;98114.55;1686210;82;21072;-72
2022/01/03 11:39:09;;;;;;;15.45;6.75;;;;;;;7.42;100.00;98114.37;1695306;82;21084;-70
2022/01/03 11:41:39;;;;;;;18.35;8.63;;;;;;;7.42;100.00;98110.44;1704484;82;21068;-70
2022/01/03 11:44:07;;;;;;;22.75;11.63;;;;;;;7.46;100.00;98111.96;1693976;82;21145;-70
2022/01/03 11:46:34;;;;;;;11.88;6.30;;;;;;;7.50;100.00;98123.92;1693444;84;21087;-69
2022/01/03 11:49:02;;;;;;;15.93;7.28;;;;;;;7.49;100.00;98122.25;1693840;84;21089;-69
2022/01/03 11:51:32;;;;;;;62.55;27.27;;;;;;;7.47;100.00;98113.16;1669354;84;21092;-70